Terminal Aerodrome Forecast
Issued by NWS New Orleans/Baton Rouge, LA

Home | Current Version | Previous Version | Text Only | Print | Product List | Glossary On
Versions: 1 2 3 4 5 6 7 8 9 10 11 12 13 14 15 16 17 18 19 20 21 22 23 24 25 26 27 28 29 30 31 32 33 34 35 36 37 38 39 40 41 42
000
FTUS44 KLIX 020100 AAA
TAFNEW
TAF AMD
KNEW 020123Z 0201/0224 10011KT 3/4SM BR VV002
     FM020300 11008KT 1/2SM FG OVC002
     FM020900 09004KT 1/4SM FG OVC003
     FM021500 11004KT 1 1/2SM BR OVC003
     FM021900 11005KT 4SM BR BKN008=

USA.gov is the U.S. government's official web portal to all federal, state and local government web resources and services.